Time;durP1;ratioP1;P1;durP2;ratioP2;P2;SDS_P1;SDS_P2;PMS_P1;PMS_P2;Temp;Humidity;BMP_temperature;BMP_pressure;BME280_temperature;BME280_humidity;BME280_pressure;Samples;Min_cycle;Max_cycle;Signal;HPM_P1;HPM_P2
2021/09/08 00:00:38;;;;;;;5.80;3.50;;;;;;;24.36;33.27;101955.22;109887;1247;72455;-87
2021/09/08 00:03:46;;;;;;;7.10;3.20;;;;;;;24.35;33.22;101954.56;109916;1248;74520;-83
2021/09/08 00:07:06;;;;;;;;;;;;;;;;;;;;;
2021/09/08 00:09:58;;;;;;;5.60;2.80;;;;;;;24.35;33.47;101959.64;110022;1241;61116;-88
2021/09/08 00:13:14;;;;;;;;;;;;;;;;;;;;;
2021/09/08 00:16:49;;;;;;;;;;;;;;;;;;;;;
2021/09/08 00:20:08;;;;;;;;;;;;;;;;;;;;;
2021/09/08 00:23:05;;;;;;;8.50;3.20;;;;;;;24.35;33.44;101955.86;109044;1245;61010;-88
2021/09/08 00:26:24;;;;;;;6.50;3.10;;;;;;;24.34;33.35;101959.14;108953;1248;71212;-88
2021/09/08 00:29:41;;;;;;;6.60;2.70;;;;;;;24.34;33.31;101958.23;108855;1246;73502;-83
2021/09/08 00:32:31;;;;;;;10.40;3.60;;;;;;;24.33;33.24;101960.64;109313;1251;61108;-84
2021/09/08 00:35:57;;;;;;;;;;;;;;;;;;;;;
2021/09/08 00:38:54;;;;;;;;;;;;;;;;;;;;;
2021/09/08 00:42:25;;;;;;;;;;;;;;;;;;;;;
2021/09/08 00:45:23;;;;;;;7.80;3.00;;;;;;;24.32;33.37;101957.10;109973;1238;61220;-90
2021/09/08 00:48:28;;;;;;;7.00;3.20;;;;;;;24.32;33.34;101955.55;110152;1241;64823;-86
2021/09/08 00:51:54;;;;;;;6.70;3.20;;;;;;;24.31;33.42;101955.91;110561;1237;75647;-85
2021/09/08 00:55:11;;;;;;;8.80;3.20;;;;;;;24.30;33.22;101952.58;110968;1232;75654;-85
2021/09/08 00:58:28;;;;;;;;;;;;;;;;;;;;;
2021/09/08 01:02:08;;;;;;;;;;;;;;;;;;;;;
2021/09/08 01:05:26;;;;;;;6.00;3.40;;;;;;;24.29;33.07;101954.86;110674;1236;73554;-94
2021/09/08 01:08:25;;;;;;;8.00;3.00;;;;;;;24.28;33.04;101955.42;110692;1236;74326;-85
2021/09/08 01:11:59;;;;;;;8.00;3.40;;;;;;;24.27;33.08;101955.48;110697;1236;63307;-88
2021/09/08 01:14:47;;;;;;;8.00;3.20;;;;;;;24.27;33.23;101961.42;110444;1239;60924;-83
2021/09/08 01:17:58;;;;;;;5.60;3.10;;;;;;;24.27;33.08;101961.09;110116;1244;73527;-86
2021/09/08 01:21:14;;;;;;;5.90;2.50;;;;;;;24.25;33.20;101963.14;109047;1253;73083;-81
2021/09/08 01:25:02;;;;;;;;;;;;;;;;;;;;;
2021/09/08 01:28:16;;;;;;;;;;;;;;;;;;;;;
2021/09/08 01:31:22;;;;;;;6.40;3.00;;;;;;;24.24;33.21;101951.37;108402;1253;72200;-84
2021/09/08 01:34:31;;;;;;;0.90;0.90;;;;;;;24.22;33.13;101950.75;108249;1253;75785;-86
2021/09/08 01:38:08;;;;;;;;;;;;;;;;;;;;;
2021/09/08 01:41:43;;;;;;;;;;;;;;;;;;;;;
2021/09/08 01:44:48;;;;;;;5.00;3.00;;;;;;;24.21;33.26;101945.80;108789;1253;72218;-85
2021/09/08 01:47:56;;;;;;;8.60;2.90;;;;;;;24.21;33.16;101946.51;109085;1244;75544;-86
2021/09/08 01:51:22;;;;;;;6.30;2.80;;;;;;;24.21;33.20;101952.13;108697;1254;61084;-84
2021/09/08 01:54:38;;;;;;;;;;;;;;;;;;;;;
2021/09/08 01:57:53;;;;;;;6.00;2.90;;;;;;;24.19;33.32;101960.48;109432;1247;72679;-88
2021/09/08 02:01:28;;;;;;;;;;;;;;;;;;;;;
2021/09/08 02:04:44;;;;;;;7.60;2.90;;;;;;;24.19;33.28;101959.45;110087;1238;61217;-88
2021/09/08 02:07:58;;;;;;;8.10;3.50;;;;;;;24.18;33.03;101958.76;110318;1241;61072;-90
2021/09/08 02:11:15;;;;;;;;;;;;;;;;;;;;;
2021/09/08 02:14:27;;;;;;;7.30;2.90;;;;;;;24.18;32.98;101955.91;110602;1238;75638;-89
2021/09/08 02:17:43;;;;;;;;;;;;;;;;;;;;;
2021/09/08 02:20:53;;;;;;;4.40;2.50;;;;;;;24.16;33.06;101952.95;110220;1236;61502;-85
2021/09/08 02:23:58;;;;;;;5.90;2.80;;;;;;;24.17;33.14;101950.95;110310;1235;73070;-84
2021/09/08 02:27:50;;;;;;;7.80;2.70;;;;;;;24.16;33.15;101947.05;110146;1242;73086;-84
2021/09/08 02:30:58;;;;;;;7.50;2.70;;;;;;;24.16;32.81;101947.22;110347;1241;61486;-80
2021/09/08 02:37:29;;;;;;;11.90;2.80;;;;;;;24.15;32.97;101944.03;110137;1238;70180;-86
2021/09/08 02:40:59;;;;;;;7.00;3.20;;;;;;;24.15;33.12;101938.66;110593;1238;74949;-86
2021/09/08 02:44:21;;;;;;;;;;;;;;;;;;;;;
2021/09/08 02:47:35;;;;;;;8.30;3.00;;;;;;;24.14;33.00;101936.73;110101;1244;61079;-84
2021/09/08 02:50:44;;;;;;;6.60;3.20;;;;;;;24.14;32.97;101935.52;110065;1235;72567;-85
2021/09/08 02:53:31;;;;;;;7.60;3.00;;;;;;;24.14;33.14;101930.63;110128;1244;74390;-80
2021/09/08 02:56:47;;;;;;;6.90;2.90;;;;;;;24.14;32.97;101926.52;110444;1232;61363;-84
2021/09/08 03:00:24;;;;;;;8.30;3.40;;;;;;;24.13;33.01;101934.13;110339;1241;61052;-81
2021/09/08 03:03:38;;;;;;;6.90;2.90;;;;;;;24.13;32.99;101934.68;110326;1241;72569;-80
2021/09/08 03:07:04;;;;;;;8.20;3.00;;;;;;;24.12;33.03;101937.59;110216;1243;75448;-85
2021/09/08 03:10:50;;;;;;;;;;;;;;;;;;;;;
2021/09/08 03:14:00;;;;;;;7.10;3.00;;;;;;;24.11;32.93;101937.83;109901;1248;61045;-86
2021/09/08 03:17:30;;;;;;;7.60;3.50;;;;;;;24.11;33.04;101937.08;109818;1248;71269;-87
2021/09/08 03:20:59;;;;;;;;;;;;;;;;;;;;;
2021/09/08 03:24:35;;;;;;;6.50;2.90;;;;;;;24.10;33.04;101940.06;109266;1248;61331;-80
2021/09/08 03:31:57;;;;;;;9.60;3.40;;;;;;;24.14;33.02;101933.13;112456;1213;600926;-84
2021/09/08 03:35:09;;;;;;;;;;;;;;;;;;;;;
2021/09/08 03:39:21;;;;;;;7.20;3.50;;;;;;;24.10;33.02;101943.11;111776;1227;60038;-90
2021/09/08 03:42:32;;;;;;;;;;;;;;;;;;;;;
2021/09/08 03:46:18;;;;;;;;;;;;;;;;;;;;;
2021/09/08 03:49:51;;;;;;;;;;;;;;;;;;;;;
2021/09/08 03:53:24;;;;;;;;;;;;;;;;;;;;;
2021/09/08 03:56:32;;;;;;;;;;;;;;;;;;;;;
2021/09/08 04:03:13;;;;;;;8.30;3.40;;;;;;;23.91;32.98;101947.74;109077;1253;71978;-83
2021/09/08 04:06:51;;;;;;;;;;;;;;;;;;;;;
2021/09/08 04:09:57;;;;;;;8.20;3.40;;;;;;;23.74;33.00;101946.17;108252;1262;59413;-84
2021/09/08 04:13:31;;;;;;;;;;;;;;;;;;;;;
2021/09/08 04:17:33;;;;;;;7.10;3.10;;;;;;;23.66;33.17;101942.55;112790;1220;73279;-82
2021/09/08 04:24:33;;;;;;;;;;;;;;;;;;;;;
2021/09/08 04:31:21;;;;;;;;;;;;;;;;;;;;;
2021/09/08 04:34:59;;;;;;;;;;;;;;;;;;;;;
2021/09/08 04:38:45;;;;;;;;;;;;;;;;;;;;;
2021/09/08 04:42:33;;;;;;;;;;;;;;;;;;;;;
2021/09/08 04:45:59;;;;;;;;;;;;;;;;;;;;;
2021/09/08 04:53:16;;;;;;;8.70;3.40;;;;;;;23.56;33.56;101964.53;108831;1254;59457;-89
2021/09/08 04:56:44;;;;;;;13.60;3.30;;;;;;;23.56;33.62;101965.06;108447;1257;73557;-85
2021/09/08 05:03:30;;;;;;;8.80;3.30;;;;;;;23.54;33.65;101968.81;108384;1250;60266;-93
2021/09/08 05:07:35;;;;;;;9.10;3.10;;;;;;;23.56;33.71;101974.98;108962;1248;59443;-87
2021/09/08 05:11:07;;;;;;;;;;;;;;;;;;;;;
2021/09/08 05:18:19;;;;;;;;;;;;;;;;;;;;;
2021/09/08 05:21:55;;;;;;;;;;;;;;;;;;;;;
2021/09/08 05:25:43;;;;;;;9.60;3.50;;;;;;;23.63;33.52;101986.04;109355;1251;71250;-83
2021/09/08 05:28:50;;;;;;;8.50;3.40;;;;;;;23.64;33.50;101979.51;108909;1253;74020;-84
2021/09/08 05:32:37;;;;;;;7.50;3.30;;;;;;;23.65;33.40;101977.66;108592;1256;61208;-82
2021/09/08 05:36:25;;;;;;;7.00;3.50;;;;;;;23.66;33.43;101975.23;108721;1254;60225;-87
2021/09/08 05:39:32;;;;;;;6.60;3.50;;;;;;;23.66;33.60;101973.42;108683;1248;72455;-84
2021/09/08 05:46:36;;;;;;;;;;;;;;;;;;;;;
2021/09/08 05:53:03;;;;;;;;;;;;;;;;;;;;;
2021/09/08 06:00:23;;;;;;;9.50;3.50;;;;;;;23.78;33.46;101977.88;112187;1220;600476;-89
2021/09/08 06:03:41;;;;;;;13.00;4.30;;;;;;;23.75;33.32;101979.30;112683;1221;70734;-85
2021/09/08 06:07:01;;;;;;;;;;;;;;;;;;;;;
2021/09/08 06:11:04;;;;;;;13.50;3.20;;;;;;;23.76;33.35;101982.18;111417;1230;61113;-82
2021/09/08 06:14:11;;;;;;;;;;;;;;;;;;;;;
2021/09/08 06:21:24;;;;;;;;;;;;;;;;;;;;;
2021/09/08 06:29:01;;;;;;;58.80;6.40;;;;;;;23.70;33.47;101988.45;109249;1244;73826;-85
2021/09/08 06:32:22;;;;;;;;;;;;;;;;;;;;;
2021/09/08 06:35:29;;;;;;;;;;;;;;;;;;;;;
2021/09/08 06:39:36;;;;;;;13.30;3.30;;;;;;;23.74;33.49;101991.05;112188;1219;599842;-89
2021/09/08 06:43:18;;;;;;;21.20;3.60;;;;;;;23.71;33.44;101994.48;112352;1213;71927;-82
2021/09/08 06:47:05;;;;;;;9.40;2.90;;;;;;;23.71;33.55;101999.70;112186;1217;61268;-83
2021/09/08 06:49:58;;;;;;;7.00;2.60;;;;;;;23.70;33.43;101994.95;111195;1231;61410;-83
2021/09/08 06:53:42;;;;;;;;;;;;;;;;;;;;;
2021/09/08 07:00:54;;;;;;;;;;;;;;;;;;;;;
2021/09/08 07:08:09;;;;;;;;;;;;;;;;;;;;;
2021/09/08 07:12:05;;;;;;;;;;;;;;;;;;;;;
2021/09/08 07:15:23;;;;;;;40.40;4.40;;;;;;;23.50;34.03;102002.82;108376;1256;60457;-83
2021/09/08 07:18:25;;;;;;;;;;;;;;;;;;;;;
2021/09/08 07:21:33;;;;;;;29.20;4.00;;;;;;;23.55;34.35;102006.64;108319;1256;72807;-83
2021/09/08 07:25:10;;;;;;;;;;;;;;;;;;;;;
2021/09/08 07:28:28;;;;;;;;;;;;;;;;;;;;;
2021/09/08 07:32:15;;;;;;;8.30;2.40;;;;;;;23.59;34.47;102015.00;109104;1252;59398;-86
2021/09/08 07:35:11;;;;;;;11.00;2.50;;;;;;;23.62;34.42;102015.02;108974;1253;72665;-84
2021/09/08 07:38:56;;;;;;;;;;;;;;;;;;;;;
2021/09/08 07:42:33;;;;;;;33.90;4.60;;;;;;;23.54;34.37;102028.60;108416;1249;59558;-83
2021/09/08 07:45:49;;;;;;;;;;;;;;;;;;;;;
2021/09/08 07:53:19;;;;;;;;;;;;;;;;;;;;;
2021/09/08 07:56:26;;;;;;;;;;;;;;;;;;;;;
2021/09/08 08:00:12;;;;;;;;;;;;;;;;;;;;;
2021/09/08 08:08:00;;;;;;;13.80;2.70;;;;;;;23.64;34.67;102015.84;108885;1247;74346;-85
2021/09/08 08:11:04;;;;;;;10.20;2.20;;;;;;;23.65;34.62;102015.37;108810;1250;59791;-82
2021/09/08 08:14:29;;;;;;;;;;;;;;;;;;;;;
2021/09/08 08:18:20;;;;;;;33.90;5.00;;;;;;;23.69;34.95;102004.50;108421;1257;70535;-85
2021/09/08 08:21:38;;;;;;;;;;;;;;;;;;;;;
2021/09/08 08:29:07;;;;;;;38.00;4.20;;;;;;;23.75;34.84;102003.96;108474;1255;61661;-85
2021/09/08 08:32:15;;;;;;;16.90;3.20;;;;;;;23.78;34.77;101997.13;108263;1258;73594;-83
2021/09/08 08:35:43;;;;;;;19.90;3.20;;;;;;;23.79;34.61;101995.11;108164;1257;72812;-86
2021/09/08 08:39:22;;;;;;;;;;;;;;;;;;;;;
2021/09/08 08:42:41;;;;;;;;;;;;;;;;;;;;;
2021/09/08 08:46:29;;;;;;;;;;;;;;;;;;;;;
2021/09/08 08:49:57;;;;;;;;;;;;;;;;;;;;;
2021/09/08 08:53:17;;;;;;;4.20;2.30;;;;;;;23.77;34.51;101980.46;108506;1251;59536;-83
2021/09/08 08:57:04;;;;;;;7.50;3.00;;;;;;;23.80;34.60;101978.52;109561;1250;59877;-84
2021/09/08 09:04:17;;;;;;;;;;;;;;;;;;;;;
2021/09/08 09:10:52;;;;;;;;;;;;;;;;;;;;;
2021/09/08 09:14:20;;;;;;;7.00;3.00;;;;;;;23.88;34.26;101976.16;108159;1252;72677;-82
2021/09/08 09:17:39;;;;;;;;;;;;;;;;;;;;;
2021/09/08 09:20:39;;;;;;;;;;;;;;;;;;;;;
2021/09/08 09:24:19;;;;;;;;;;;;;;;;;;;;;
2021/09/08 09:28:00;;;;;;;;;;;;;;;;;;;;;
2021/09/08 09:39:18;;;;;;;7.00;2.70;;;;;;;23.92;33.46;101945.70;111964;1219;71786;-81
2021/09/08 09:43:34;;;;;;;3.90;2.40;;;;;;;23.92;33.51;101944.81;110643;1234;64617;-86
2021/09/08 09:47:05;;;;;;;;;;;;;;;;;;;;;
2021/09/08 09:50:56;;;;;;;;;;;;;;;;;;;;;
2021/09/08 10:01:55;;;;;;;;;;;;;;;;;;;;;
2021/09/08 10:04:54;;;;;;;;;;;;;;;;;;;;;
2021/09/08 10:09:02;;;;;;;;;;;;;;;;;;;;;
2021/09/08 10:16:38;;;;;;;15.30;3.10;;;;;;;23.95;33.12;101903.48;112411;1219;599419;-81
2021/09/08 10:20:14;;;;;;;;;;;;;;;;;;;;;
2021/09/08 10:23:56;;;;;;;13.20;2.30;;;;;;;23.95;33.06;101892.53;111169;1224;59001;-85
2021/09/08 10:27:29;;;;;;;13.70;2.90;;;;;;;23.94;32.80;101881.96;110931;1232;59921;-84
2021/09/08 10:30:58;;;;;;;11.70;2.60;;;;;;;23.93;32.78;101882.52;110909;1226;73805;-84
2021/09/08 10:34:16;;;;;;;;;;;;;;;;;;;;;
2021/09/08 10:37:07;;;;;;;14.40;2.60;;;;;;;23.97;32.75;101860.56;110241;1237;61267;-83
2021/09/08 10:40:30;;;;;;;;;;;;;;;;;;;;;
2021/09/08 10:43:56;;;;;;;21.70;3.20;;;;;;;23.99;32.61;101864.04;109773;1234;71473;-81
2021/09/08 10:47:09;;;;;;;10.90;2.60;;;;;;;23.98;32.78;101864.30;109568;1238;72170;-83
2021/09/08 10:49:58;;;;;;;15.90;3.90;;;;;;;23.97;32.69;101856.26;109807;1240;59941;-86
2021/09/08 10:56:59;;;;;;;8.30;2.90;;;;;;;23.97;32.76;101849.77;109374;1249;71729;-81
2021/09/08 11:00:58;;;;;;;;;;;;;;;;;;;;;
2021/09/08 11:04:13;;;;;;;14.50;2.70;;;;;;;24.01;32.85;101835.10;109295;1250;61362;-81
2021/09/08 11:07:02;;;;;;;8.10;2.50;;;;;;;24.02;32.93;101835.75;109542;1250;60195;-81
2021/09/08 11:10:06;;;;;;;12.30;2.70;;;;;;;23.96;32.48;101832.77;109401;1248;72867;-86
2021/09/08 11:13:45;;;;;;;8.50;2.50;;;;;;;23.92;32.40;101833.02;109556;1249;73605;-87
2021/09/08 11:17:05;;;;;;;;;;;;;;;;;;;;;
2021/09/08 11:20:15;;;;;;;8.40;2.70;;;;;;;23.96;32.54;101828.80;108441;1253;59607;-87
2021/09/08 11:23:55;;;;;;;9.80;3.10;;;;;;;23.97;32.64;101828.87;108585;1247;71196;-86
2021/09/08 11:27:19;;;;;;;;;;;;;;;;;;;;;
2021/09/08 11:30:21;;;;;;;10.10;2.80;;;;;;;24.01;32.59;101814.95;108536;1247;61256;-83
2021/09/08 11:33:22;;;;;;;5.40;2.30;;;;;;;24.03;32.55;101808.38;108997;1245;60142;-83
2021/09/08 11:36:46;;;;;;;7.00;2.40;;;;;;;24.05;32.59;101805.15;108953;1246;71400;-82
2021/09/08 11:39:37;;;;;;;;;;;;;;;;;;;;;
2021/09/08 11:42:46;;;;;;;6.00;2.30;;;;;;;24.09;32.60;101791.95;109794;1244;59377;-90
2021/09/08 11:46:18;;;;;;;;;;;;;;;;;;;;;
2021/09/08 11:50:17;;;;;;;3.90;2.20;;;;;;;24.12;32.88;101781.48;109800;1242;71386;-86
2021/09/08 11:54:07;;;;;;;;;;;;;;;;;;;;;
2021/09/08 11:57:44;;;;;;;5.30;2.40;;;;;;;24.16;32.75;101773.33;109793;1244;60370;-87
2021/09/08 12:00:29;;;;;;;3.90;1.90;;;;;;;24.17;32.83;101769.99;109791;1247;60136;-88
2021/09/08 12:04:29;;;;;;;4.90;2.40;;;;;;;24.18;32.77;101768.29;109826;1247;72394;-83
2021/09/08 12:07:43;;;;;;;5.40;2.20;;;;;;;24.19;32.63;101764.09;109756;1245;72792;-83
2021/09/08 12:11:26;;;;;;;;;;;;;;;;;;;;;
2021/09/08 12:15:07;;;;;;;;;;;;;;;;;;;;;
2021/09/08 12:18:57;;;;;;;5.90;2.10;;;;;;;24.22;32.64;101753.06;108932;1253;71469;-87
2021/09/08 12:22:34;;;;;;;6.40;1.80;;;;;;;24.23;32.95;101746.20;108280;1260;74003;-90
2021/09/08 12:25:44;;;;;;;3.80;2.00;;;;;;;24.24;32.99;101743.80;108353;1251;61100;-87
2021/09/08 12:29:00;;;;;;;;;;;;;;;;;;;;;
2021/09/08 12:36:10;;;;;;;5.80;2.30;;;;;;;24.27;33.07;101737.27;108341;1250;74108;-85
2021/09/08 12:39:39;;;;;;;5.40;2.30;;;;;;;24.28;33.13;101734.91;108448;1251;60009;-87
2021/09/08 12:42:49;;;;;;;;;;;;;;;;;;;;;
2021/09/08 12:46:17;;;;;;;7.80;2.30;;;;;;;24.28;33.12;101732.00;108395;1256;73706;-84
2021/09/08 12:49:19;;;;;;;;;;;;;;;;;;;;;
2021/09/08 12:53:08;;;;;;;;;;;;;;;;;;;;;
2021/09/08 12:56:24;;;;;;;5.00;2.20;;;;;;;24.30;33.15;101725.23;109838;1250;61190;-89
2021/09/08 12:59:41;;;;;;;;;;;;;;;;;;;;;
2021/09/08 13:03:08;;;;;;;;;;;;;;;;;;;;;
2021/09/08 13:06:35;;;;;;;5.20;2.30;;;;;;;24.30;33.32;101714.77;109155;1250;60251;-84
2021/09/08 13:09:50;;;;;;;;;;;;;;;;;;;;;
2021/09/08 13:13:14;;;;;;;4.50;2.30;;;;;;;24.31;33.06;101706.09;109964;1243;72383;-84
2021/09/08 13:17:02;;;;;;;5.00;2.20;;;;;;;24.31;33.24;101708.21;109815;1239;71933;-84
2021/09/08 13:20:13;;;;;;;5.90;2.20;;;;;;;24.32;33.15;101702.05;109705;1241;59625;-83
2021/09/08 13:23:01;;;;;;;;;;;;;;;;;;;;;
2021/09/08 13:26:08;;;;;;;;;;;;;;;;;;;;;
2021/09/08 13:29:28;;;;;;;5.60;2.20;;;;;;;24.33;33.17;101692.63;109013;1253;72843;-89
2021/09/08 13:32:32;;;;;;;4.50;2.40;;;;;;;24.33;33.07;101685.59;109119;1253;61093;-92
2021/09/08 13:35:26;;;;;;;5.60;2.40;;;;;;;24.33;32.96;101688.64;109069;1252;60899;-84
2021/09/08 13:38:46;;;;;;;5.80;2.30;;;;;;;24.33;32.87;101689.38;109508;1241;72369;-84
2021/09/08 13:41:57;;;;;;;4.50;2.00;;;;;;;24.32;32.81;101685.80;109842;1240;72675;-86
2021/09/08 13:45:25;;;;;;;6.60;2.50;;;;;;;24.31;32.65;101678.68;110144;1235;61741;-83
2021/09/08 13:48:57;;;;;;;5.20;2.10;;;;;;;24.32;32.68;101671.14;109958;1236;59672;-87
2021/09/08 13:52:14;;;;;;;7.10;2.30;;;;;;;24.32;32.36;101670.91;109917;1236;71068;-84
2021/09/08 13:55:13;;;;;;;6.30;2.40;;;;;;;24.33;32.34;101669.02;110137;1241;72621;-88
2021/09/08 13:58:28;;;;;;;;;;;;;;;;;;;;;
2021/09/08 14:01:53;;;;;;;4.20;2.00;;;;;;;24.34;32.40;101666.06;110237;1232;59525;-83
2021/09/08 14:04:48;;;;;;;5.00;2.10;;;;;;;24.35;32.31;101663.13;110073;1235;72304;-84
2021/09/08 14:08:12;;;;;;;6.20;2.30;;;;;;;24.36;32.22;101662.17;110299;1239;71730;-83
2021/09/08 14:10:58;;;;;;;6.30;2.30;;;;;;;24.37;32.20;101659.23;110442;1239;60096;-83
2021/09/08 14:14:13;;;;;;;4.80;2.20;;;;;;;24.37;32.19;101662.65;110161;1238;59491;-84
2021/09/08 14:17:27;;;;;;;5.50;2.30;;;;;;;24.37;32.23;101659.77;110014;1235;73790;-82
2021/09/08 14:20:41;;;;;;;4.40;2.50;;;;;;;24.37;32.28;101655.23;110448;1231;72817;-88
2021/09/08 14:23:58;;;;;;;;;;;;;;;;;;;;;
2021/09/08 14:27:09;;;;;;;4.20;2.10;;;;;;;24.39;32.02;101649.02;111047;1233;61945;-84
2021/09/08 14:30:15;;;;;;;4.20;2.40;;;;;;;24.40;31.95;101646.77;110781;1228;71376;-88
2021/09/08 14:33:47;;;;;;;4.40;2.30;;;;;;;24.40;32.22;101645.33;110696;1229;72842;-84
2021/09/08 14:36:46;;;;;;;3.80;2.20;;;;;;;24.40;31.94;101641.72;110639;1232;61559;-83
2021/09/08 14:39:52;;;;;;;;;;;;;;;;;;;;;
2021/09/08 14:42:59;;;;;;;;;;;;;;;;;;;;;
2021/09/08 14:45:58;;;;;;;4.00;2.30;;;;;;;24.42;31.93;101638.55;110351;1232;73049;-85
2021/09/08 14:49:04;;;;;;;4.60;2.20;;;;;;;24.42;31.99;101634.40;110094;1234;60115;-83
2021/09/08 14:51:58;;;;;;;4.90;2.30;;;;;;;24.42;32.07;101634.91;110150;1240;61221;-83
2021/09/08 14:54:44;;;;;;;4.30;2.20;;;;;;;24.43;32.01;101631.83;109955;1242;73912;-83
2021/09/08 14:58:08;;;;;;;5.10;2.60;;;;;;;24.42;32.03;101631.85;109928;1243;71799;-85
2021/09/08 15:01:12;;;;;;;4.10;1.90;;;;;;;24.43;32.13;101624.05;109917;1235;59781;-85
2021/09/08 15:04:29;;;;;;;4.60;2.10;;;;;;;24.43;31.93;101623.30;109760;1245;59300;-85
2021/09/08 15:07:42;;;;;;;4.00;2.10;;;;;;;24.44;32.13;101621.13;109698;1245;71546;-87
2021/09/08 15:11:03;;;;;;;3.90;2.10;;;;;;;24.44;32.00;101625.06;109776;1249;73678;-87
2021/09/08 15:14:28;;;;;;;5.10;2.20;;;;;;;24.45;32.05;101621.77;109385;1250;59933;-88
2021/09/08 15:17:53;;;;;;;;;;;;;;;;;;;;;
2021/09/08 15:21:28;;;;;;;4.90;2.20;;;;;;;24.43;32.29;101614.85;109848;1249;73844;-86
2021/09/08 15:24:56;;;;;;;4.00;2.20;;;;;;;24.43;32.37;101611.42;109330;1251;72731;-91
2021/09/08 15:31:52;;;;;;;3.60;2.00;;;;;;;24.42;32.25;101614.92;108856;1254;61403;-91
2021/09/08 15:38:49;;;;;;;;;;;;;;;;;;;;;
2021/09/08 15:42:06;;;;;;;5.50;2.00;;;;;;;24.41;32.68;101604.39;108084;1263;61288;-90
2021/09/08 15:45:34;;;;;;;3.40;1.90;;;;;;;24.41;32.88;101603.51;108112;1261;60209;-86
2021/09/08 15:48:49;;;;;;;5.50;2.30;;;;;;;24.41;33.04;101602.48;108346;1257;73783;-83
2021/09/08 15:52:16;;;;;;;2.10;1.30;;;;;;;24.40;33.08;101603.23;108422;1249;74893;-82
2021/09/08 15:55:31;;;;;;;;;;;;;;;;;;;;;
2021/09/08 15:58:25;;;;;;;3.90;1.90;;;;;;;24.40;33.49;101600.91;107906;1264;60354;-92
2021/09/08 16:01:37;;;;;;;3.20;2.00;;;;;;;24.40;33.64;101599.98;107986;1262;72632;-87
2021/09/08 16:04:53;;;;;;;3.40;1.90;;;;;;;24.40;33.76;101598.02;108173;1261;74693;-91
2021/09/08 16:08:04;;;;;;;3.70;2.00;;;;;;;24.40;33.84;101595.52;108194;1261;60295;-88
2021/09/08 16:11:19;;;;;;;;;;;;;;;;;;;;;
2021/09/08 16:14:40;;;;;;;4.70;2.00;;;;;;;24.38;34.10;101588.09;108574;1253;73928;-85
2021/09/08 16:18:17;;;;;;;;;;;;;;;;;;;;;
2021/09/08 16:22:10;;;;;;;3.30;1.80;;;;;;;24.38;34.36;101580.70;108476;1256;62261;-84
2021/09/08 16:25:11;;;;;;;3.90;2.00;;;;;;;24.38;34.58;101576.73;108432;1256;60196;-84
2021/09/08 16:27:57;;;;;;;4.90;2.10;;;;;;;24.39;34.61;101580.11;108579;1254;73657;-90
2021/09/08 16:31:23;;;;;;;3.90;2.30;;;;;;;24.39;34.69;101579.92;108748;1252;75263;-87
2021/09/08 16:34:52;;;;;;;;;;;;;;;;;;;;;
2021/09/08 16:38:04;;;;;;;3.20;1.90;;;;;;;24.39;34.98;101580.82;108453;1257;60632;-87
2021/09/08 16:41:51;;;;;;;3.70;2.20;;;;;;;24.39;35.09;101579.55;108451;1256;72408;-85
2021/09/08 16:44:59;;;;;;;4.20;2.10;;;;;;;24.39;35.05;101582.44;108611;1254;74498;-88
2021/09/08 16:48:08;;;;;;;4.30;2.30;;;;;;;24.39;35.18;101586.21;108481;1250;60455;-86
2021/09/08 16:51:21;;;;;;;;;;;;;;;;;;;;;
2021/09/08 16:58:18;;;;;;;;;;;;;;;;;;;;;
2021/09/08 17:01:45;;;;;;;5.70;2.30;;;;;;;24.40;35.48;101589.95;108715;1247;60417;-87
2021/09/08 17:05:06;;;;;;;;;;;;;;;;;;;;;
2021/09/08 17:11:30;;;;;;;4.00;2.40;;;;;;;24.44;35.46;101594.09;112362;1220;599116;-92
2021/09/08 17:15:41;;;;;;;3.90;2.10;;;;;;;24.40;35.63;101591.33;111902;1227;72849;-91
2021/09/08 17:18:34;;;;;;;4.00;2.30;;;;;;;24.40;35.70;101595.66;111587;1222;60017;-85
2021/09/08 17:25:54;;;;;;;4.90;2.10;;;;;;;24.40;35.70;101598.88;110225;1242;71275;-89
2021/09/08 17:30:06;;;;;;;3.90;2.20;;;;;;;24.40;35.85;101601.60;110224;1242;71027;-92
2021/09/08 17:33:07;;;;;;;;;;;;;;;;;;;;;
2021/09/08 17:40:24;;;;;;;4.10;2.20;;;;;;;24.39;35.52;101602.56;109873;1248;71216;-87
2021/09/08 17:44:10;;;;;;;;;;;;;;;;;;;;;
2021/09/08 17:47:12;;;;;;;4.80;2.30;;;;;;;24.40;35.68;101614.20;108504;1258;60436;-88
2021/09/08 17:50:11;;;;;;;;;;;;;;;;;;;;;
2021/09/08 17:53:43;;;;;;;4.20;2.50;;;;;;;24.39;35.71;101624.32;108400;1257;71368;-84
2021/09/08 17:57:09;;;;;;;4.20;2.40;;;;;;;24.39;35.64;101631.73;108417;1249;72545;-90
2021/09/08 18:00:35;;;;;;;4.80;2.40;;;;;;;24.39;35.60;101632.77;108773;1248;59370;-89
2021/09/08 18:04:04;;;;;;;3.90;2.20;;;;;;;24.39;35.63;101634.05;109247;1253;59591;-85
2021/09/08 18:07:23;;;;;;;3.80;2.30;;;;;;;24.39;35.74;101633.73;108790;1247;72604;-91
2021/09/08 18:11:11;;;;;;;7.90;2.20;;;;;;;24.39;35.73;101636.96;108939;1251;71955;-82
2021/09/08 18:14:28;;;;;;;;;;;;;;;;;;;;;
2021/09/08 18:21:25;;;;;;;;;;;;;;;;;;;;;
2021/09/08 18:24:52;;;;;;;4.60;2.50;;;;;;;24.38;35.67;101635.40;108440;1258;71989;-89
2021/09/08 18:28:18;;;;;;;;;;;;;;;;;;;;;
2021/09/08 18:31:36;;;;;;;;;;;;;;;;;;;;;
2021/09/08 18:35:16;;;;;;;;;;;;;;;;;;;;;
2021/09/08 18:38:38;;;;;;;5.40;2.50;;;;;;;24.38;35.84;101646.38;108516;1258;73570;-89
2021/09/08 18:42:15;;;;;;;;;;;;;;;;;;;;;
2021/09/08 18:45:21;;;;;;;7.40;2.50;;;;;;;24.38;36.18;101644.42;108523;1258;60083;-83
2021/09/08 18:48:53;;;;;;;;;;;;;;;;;;;;;
2021/09/08 18:52:37;;;;;;;5.50;2.50;;;;;;;24.37;36.18;101645.92;108408;1259;73303;-91
2021/09/08 18:55:44;;;;;;;4.90;2.40;;;;;;;24.37;36.12;101650.09;108425;1257;60093;-86
2021/09/08 18:59:11;;;;;;;4.40;2.60;;;;;;;24.37;36.34;101652.92;108227;1252;60963;-90
2021/09/08 19:02:47;;;;;;;;;;;;;;;;;;;;;
2021/09/08 19:06:49;;;;;;;6.80;2.60;;;;;;;24.36;36.53;101649.00;108446;1259;71674;-91
2021/09/08 19:10:00;;;;;;;;;;;;;;;;;;;;;
2021/09/08 19:14:02;;;;;;;4.80;2.50;;;;;;;24.36;36.43;101653.69;108397;1259;60426;-85
2021/09/08 19:16:30;;;;;;;5.10;2.30;;;;;;;24.36;36.66;101655.27;108370;1256;71552;-86
2021/09/08 19:20:11;;;;;;;;;;;;;;;;;;;;;
2021/09/08 19:23:27;;;;;;;;;;;;;;;;;;;;;
2021/09/08 19:27:27;;;;;;;;;;;;;;;;;;;;;
2021/09/08 19:31:28;;;;;;;4.00;2.30;;;;;;;24.36;36.69;101663.96;108581;1255;73006;-90
2021/09/08 19:35:16;;;;;;;5.30;2.60;;;;;;;24.36;36.81;101663.80;108457;1256;73817;-88
2021/09/08 19:38:36;;;;;;;;;;;;;;;;;;;;;
2021/09/08 19:42:03;;;;;;;6.10;2.60;;;;;;;24.36;36.90;101662.02;108485;1254;61247;-86
2021/09/08 19:45:30;;;;;;;5.00;2.40;;;;;;;24.36;36.99;101668.06;108518;1250;72466;-86
2021/09/08 19:48:38;;;;;;;;;;;;;;;;;;;;;
2021/09/08 19:52:22;;;;;;;;;;;;;;;;;;;;;
2021/09/08 19:59:31;;;;;;;6.40;2.40;;;;;;;24.40;37.25;101661.52;112445;1220;603244;-82
2021/09/08 20:02:43;;;;;;;;;;;;;;;;;;;;;
2021/09/08 20:06:12;;;;;;;4.70;2.30;;;;;;;24.37;37.23;101667.65;111157;1232;60209;-85
2021/09/08 20:09:37;;;;;;;4.20;2.20;;;;;;;24.36;37.39;101668.27;111054;1233;60032;-80
2021/09/08 20:12:53;;;;;;;5.70;2.50;;;;;;;24.37;37.38;101673.27;111010;1234;73820;-90
2021/09/08 20:19:15;;;;;;;5.10;2.20;;;;;;;24.36;37.40;101673.32;110148;1244;61584;-82
2021/09/08 20:22:45;;;;;;;3.90;2.10;;;;;;;24.36;37.43;101674.77;109999;1244;61528;-88
2021/09/08 20:25:42;;;;;;;;;;;;;;;;;;;;;
2021/09/08 20:28:41;;;;;;;5.00;2.30;;;;;;;24.36;37.71;101682.33;109934;1241;73153;-87
2021/09/08 20:32:07;;;;;;;5.10;2.30;;;;;;;24.36;37.73;101685.23;109567;1248;59448;-84
2021/09/08 20:35:24;;;;;;;4.50;2.40;;;;;;;24.35;37.67;101684.91;109156;1252;60005;-88
2021/09/08 20:38:52;;;;;;;;;;;;;;;;;;;;;
2021/09/08 20:42:18;;;;;;;4.20;2.60;;;;;;;24.34;37.95;101684.95;109874;1248;73334;-90
2021/09/08 20:56:04;;;;;;;;;;;;;;;;;;;;;
2021/09/08 20:59:16;;;;;;;4.30;2.40;;;;;;;24.32;38.07;101684.39;109455;1251;61327;-87
2021/09/08 21:02:35;;;;;;;;;;;;;;;;;;;;;
2021/09/08 21:05:46;;;;;;;5.70;2.50;;;;;;;24.33;38.11;101685.23;109597;1251;72558;-90
2021/09/08 21:08:54;;;;;;;;;;;;;;;;;;;;;
2021/09/08 21:12:33;;;;;;;4.30;2.40;;;;;;;24.33;38.26;101680.23;109545;1245;59469;-85
2021/09/08 21:15:42;;;;;;;5.70;2.60;;;;;;;24.33;38.27;101674.62;109109;1253;61654;-88
2021/09/08 21:19:19;;;;;;;;;;;;;;;;;;;;;
2021/09/08 21:22:18;;;;;;;4.20;2.10;;;;;;;24.33;38.43;101666.39;108427;1258;73865;-85
2021/09/08 21:25:27;;;;;;;5.70;2.30;;;;;;;24.33;38.62;101666.55;108434;1259;60206;-87
2021/09/08 21:28:53;;;;;;;4.90;2.50;;;;;;;24.32;38.60;101666.04;108486;1257;59453;-85
2021/09/08 21:32:09;;;;;;;;;;;;;;;;;;;;;
2021/09/08 21:35:46;;;;;;;7.50;2.60;;;;;;;24.32;38.63;101671.95;108665;1248;73000;-87
2021/09/08 21:38:53;;;;;;;;;;;;;;;;;;;;;
2021/09/08 21:41:59;;;;;;;4.00;2.30;;;;;;;24.32;38.77;101671.09;108532;1256;61285;-83
2021/09/08 21:44:50;;;;;;;5.00;2.20;;;;;;;24.32;38.81;101669.63;109125;1256;72334;-87